sensor_id;sensor_type;location;lat;lon;timestamp;temperature;humidity
14188;DHT22;7175;51.978;5.330;2023-04-09T00:01:03;10.20;99.90
14188;DHT22;7175;51.978;5.330;2023-04-09T00:03:32;10.20;99.90
14188;DHT22;7175;51.978;5.330;2023-04-09T00:06:01;10.20;99.90
14188;DHT22;7175;51.978;5.330;2023-04-09T00:08:29;10.20;99.90
14188;DHT22;7175;51.978;5.330;2023-04-09T00:10:58;10.20;99.90
14188;DHT22;7175;51.978;5.330;2023-04-09T00:13:26;10.10;99.90
14188;DHT22;7175;51.978;5.330;2023-04-09T00:16:07;10.10;99.90
14188;DHT22;7175;51.978;5.330;2023-04-09T00:18:35;10.10;99.90
14188;DHT22;7175;51.978;5.330;2023-04-09T00:21:04;10.10;99.90
14188;DHT22;7175;51.978;5.330;2023-04-09T00:23:34;10.10;99.90
14188;DHT22;7175;51.978;5.330;2023-04-09T00:26:03;10.10;99.90
14188;DHT22;7175;51.978;5.330;2023-04-09T00:28:31;10.20;99.90
14188;DHT22;7175;51.978;5.330;2023-04-09T00:31:00;10.10;99.90
14188;DHT22;7175;51.978;5.330;2023-04-09T00:33:29;10.20;99.90
14188;DHT22;7175;51.978;5.330;2023-04-09T00:35:58;10.20;99.90
14188;DHT22;7175;51.978;5.330;2023-04-09T00:38:26;10.20;99.90
14188;DHT22;7175;51.978;5.330;2023-04-09T00:40:54;10.20;99.90
14188;DHT22;7175;51.978;5.330;2023-04-09T00:43:23;10.20;99.90
14188;DHT22;7175;51.978;5.330;2023-04-09T00:45:51;10.20;99.90
14188;DHT22;7175;51.978;5.330;2023-04-09T00:48:20;10.20;99.90
14188;DHT22;7175;51.978;5.330;2023-04-09T00:50:49;10.20;99.90
14188;DHT22;7175;51.978;5.330;2023-04-09T00:53:18;10.20;99.90
14188;DHT22;7175;51.978;5.330;2023-04-09T00:55:47;10.20;99.90
14188;DHT22;7175;51.978;5.330;2023-04-09T00:58:15;10.10;99.90
14188;DHT22;7175;51.978;5.330;2023-04-09T01:00:43;10.10;99.90
14188;DHT22;7175;51.978;5.330;2023-04-09T01:03:12;10.20;99.90
14188;DHT22;7175;51.978;5.330;2023-04-09T01:05:46;10.20;99.90
14188;DHT22;7175;51.978;5.330;2023-04-09T01:08:30;10.20;99.90
14188;DHT22;7175;51.978;5.330;2023-04-09T01:11:06;10.10;99.90
14188;DHT22;7175;51.978;5.330;2023-04-09T01:13:41;10.10;99.90
14188;DHT22;7175;51.978;5.330;2023-04-09T01:16:15;10.10;99.90
14188;DHT22;7175;51.978;5.330;2023-04-09T01:18:49;10.20;99.90
14188;DHT22;7175;51.978;5.330;2023-04-09T01:21:20;10.10;99.90
14188;DHT22;7175;51.978;5.330;2023-04-09T01:23:56;10.10;99.90
14188;DHT22;7175;51.978;5.330;2023-04-09T01:26:37;10.10;99.90
14188;DHT22;7175;51.978;5.330;2023-04-09T01:29:10;10.20;99.90
14188;DHT22;7175;51.978;5.330;2023-04-09T01:31:39;10.10;99.90
14188;DHT22;7175;51.978;5.330;2023-04-09T01:34:10;10.10;99.90
14188;DHT22;7175;51.978;5.330;2023-04-09T01:36:41;10.20;99.90
14188;DHT22;7175;51.978;5.330;2023-04-09T01:39:12;10.10;99.90
14188;DHT22;7175;51.978;5.330;2023-04-09T01:41:40;10.10;99.90
14188;DHT22;7175;51.978;5.330;2023-04-09T01:44:11;10.10;99.90
14188;DHT22;7175;51.978;5.330;2023-04-09T01:46:40;10.10;99.90
14188;DHT22;7175;51.978;5.330;2023-04-09T01:49:10;10.10;99.90
14188;DHT22;7175;51.978;5.330;2023-04-09T01:51:39;10.10;99.90
14188;DHT22;7175;51.978;5.330;2023-04-09T01:54:07;10.10;99.90
14188;DHT22;7175;51.978;5.330;2023-04-09T01:56:42;10.10;99.90
14188;DHT22;7175;51.978;5.330;2023-04-09T01:59:12;10.10;99.90
14188;DHT22;7175;51.978;5.330;2023-04-09T02:01:44;10.10;99.90
14188;DHT22;7175;51.978;5.330;2023-04-09T02:04:18;10.10;99.90
14188;DHT22;7175;51.978;5.330;2023-04-09T02:06:54;10.10;99.90
14188;DHT22;7175;51.978;5.330;2023-04-09T02:09:28;10.10;99.90
14188;DHT22;7175;51.978;5.330;2023-04-09T02:11:58;10.10;99.90
14188;DHT22;7175;51.978;5.330;2023-04-09T02:14:30;10.10;99.90
14188;DHT22;7175;51.978;5.330;2023-04-09T02:17:00;10.10;99.90
14188;DHT22;7175;51.978;5.330;2023-04-09T02:19:38;10.10;99.90
14188;DHT22;7175;51.978;5.330;2023-04-09T02:22:06;10.20;99.90
14188;DHT22;7175;51.978;5.330;2023-04-09T02:24:34;10.20;99.90
14188;DHT22;7175;51.978;5.330;2023-04-09T02:27:03;10.10;99.90
14188;DHT22;7175;51.978;5.330;2023-04-09T02:29:33;10.10;99.90
14188;DHT22;7175;51.978;5.330;2023-04-09T02:32:01;10.10;99.90
14188;DHT22;7175;51.978;5.330;2023-04-09T02:34:30;10.10;99.90
14188;DHT22;7175;51.978;5.330;2023-04-09T02:36:58;10.10;99.90
14188;DHT22;7175;51.978;5.330;2023-04-09T02:39:26;10.10;99.90
14188;DHT22;7175;51.978;5.330;2023-04-09T02:41:54;10.20;99.90
14188;DHT22;7175;51.978;5.330;2023-04-09T02:44:23;10.20;99.90
14188;DHT22;7175;51.978;5.330;2023-04-09T02:46:53;10.20;99.90
14188;DHT22;7175;51.978;5.330;2023-04-09T02:49:21;10.20;99.90
14188;DHT22;7175;51.978;5.330;2023-04-09T02:51:50;10.20;99.90
14188;DHT22;7175;51.978;5.330;2023-04-09T02:54:18;10.10;99.90
14188;DHT22;7175;51.978;5.330;2023-04-09T02:56:46;10.10;99.90
14188;DHT22;7175;51.978;5.330;2023-04-09T02:59:15;10.10;99.90
14188;DHT22;7175;51.978;5.330;2023-04-09T03:01:43;10.10;99.90
14188;DHT22;7175;51.978;5.330;2023-04-09T03:04:13;10.10;99.90
14188;DHT22;7175;51.978;5.330;2023-04-09T03:06:41;10.10;99.90
14188;DHT22;7175;51.978;5.330;2023-04-09T03:09:09;10.10;99.90
14188;DHT22;7175;51.978;5.330;2023-04-09T03:11:38;10.10;99.90
14188;DHT22;7175;51.978;5.330;2023-04-09T03:14:06;10.10;99.90
14188;DHT22;7175;51.978;5.330;2023-04-09T03:16:34;10.10;99.90
14188;DHT22;7175;51.978;5.330;2023-04-09T03:19:03;10.10;99.90
14188;DHT22;7175;51.978;5.330;2023-04-09T03:21:32;10.10;99.90
14188;DHT22;7175;51.978;5.330;2023-04-09T03:24:01;10.10;99.90
14188;DHT22;7175;51.978;5.330;2023-04-09T03:26:29;10.10;99.90
14188;DHT22;7175;51.978;5.330;2023-04-09T03:29:02;10.10;99.90
14188;DHT22;7175;51.978;5.330;2023-04-09T03:31:31;10.00;99.90
14188;DHT22;7175;51.978;5.330;2023-04-09T03:33:59;10.10;99.90
14188;DHT22;7175;51.978;5.330;2023-04-09T03:36:28;10.00;99.90
14188;DHT22;7175;51.978;5.330;2023-04-09T03:38:58;10.10;99.90
14188;DHT22;7175;51.978;5.330;2023-04-09T03:41:27;10.00;99.90
14188;DHT22;7175;51.978;5.330;2023-04-09T03:43:55;10.10;99.90
14188;DHT22;7175;51.978;5.330;2023-04-09T03:46:24;10.00;99.90
14188;DHT22;7175;51.978;5.330;2023-04-09T03:48:52;10.00;99.90
14188;DHT22;7175;51.978;5.330;2023-04-09T03:51:21;10.00;99.90
14188;DHT22;7175;51.978;5.330;2023-04-09T03:53:49;10.00;99.90
14188;DHT22;7175;51.978;5.330;2023-04-09T03:56:18;10.00;99.90
14188;DHT22;7175;51.978;5.330;2023-04-09T03:58:47;10.00;99.90
14188;DHT22;7175;51.978;5.330;2023-04-09T04:01:16;10.00;99.90
14188;DHT22;7175;51.978;5.330;2023-04-09T04:03:44;10.00;99.90
14188;DHT22;7175;51.978;5.330;2023-04-09T04:06:12;9.90;99.90
14188;DHT22;7175;51.978;5.330;2023-04-09T04:08:41;9.90;99.90
14188;DHT22;7175;51.978;5.330;2023-04-09T04:11:10;10.00;99.90
14188;DHT22;7175;51.978;5.330;2023-04-09T04:13:40;9.90;99.90
14188;DHT22;7175;51.978;5.330;2023-04-09T04:16:09;9.90;99.90
14188;DHT22;7175;51.978;5.330;2023-04-09T04:18:37;9.90;99.90
14188;DHT22;7175;51.978;5.330;2023-04-09T04:21:11;9.90;99.90
14188;DHT22;7175;51.978;5.330;2023-04-09T04:23:40;9.90;99.90
14188;DHT22;7175;51.978;5.330;2023-04-09T04:26:08;9.90;99.90
14188;DHT22;7175;51.978;5.330;2023-04-09T04:28:37;9.90;99.90
14188;DHT22;7175;51.978;5.330;2023-04-09T04:31:10;9.90;99.90
14188;DHT22;7175;51.978;5.330;2023-04-09T04:33:40;9.90;99.90
14188;DHT22;7175;51.978;5.330;2023-04-09T04:36:10;9.80;99.90
14188;DHT22;7175;51.978;5.330;2023-04-09T04:38:39;9.80;99.90
14188;DHT22;7175;51.978;5.330;2023-04-09T04:41:09;9.80;99.90
14188;DHT22;7175;51.978;5.330;2023-04-09T04:43:38;9.80;99.90
14188;DHT22;7175;51.978;5.330;2023-04-09T04:46:07;9.80;99.90
14188;DHT22;7175;51.978;5.330;2023-04-09T04:48:37;9.80;99.90
14188;DHT22;7175;51.978;5.330;2023-04-09T04:51:05;9.90;99.90
14188;DHT22;7175;51.978;5.330;2023-04-09T04:53:33;9.90;99.90
14188;DHT22;7175;51.978;5.330;2023-04-09T04:56:01;9.90;99.90
14188;DHT22;7175;51.978;5.330;2023-04-09T04:58:30;9.80;99.90
14188;DHT22;7175;51.978;5.330;2023-04-09T05:00:58;9.80;99.90
14188;DHT22;7175;51.978;5.330;2023-04-09T05:03:27;9.80;99.90
14188;DHT22;7175;51.978;5.330;2023-04-09T05:05:57;9.80;99.90
14188;DHT22;7175;51.978;5.330;2023-04-09T05:08:25;9.80;99.90
14188;DHT22;7175;51.978;5.330;2023-04-09T05:10:53;9.80;99.90
14188;DHT22;7175;51.978;5.330;2023-04-09T05:13:22;9.80;99.90
14188;DHT22;7175;51.978;5.330;2023-04-09T05:15:51;9.80;99.90
14188;DHT22;7175;51.978;5.330;2023-04-09T05:18:19;9.80;99.90
14188;DHT22;7175;51.978;5.330;2023-04-09T05:20:47;9.80;99.90
14188;DHT22;7175;51.978;5.330;2023-04-09T05:23:17;9.80;99.90
14188;DHT22;7175;51.978;5.330;2023-04-09T05:25:47;9.90;99.90
14188;DHT22;7175;51.978;5.330;2023-04-09T05:28:16;9.90;99.90
14188;DHT22;7175;51.978;5.330;2023-04-09T05:30:45;9.90;99.90
14188;DHT22;7175;51.978;5.330;2023-04-09T05:33:14;9.90;99.90
14188;DHT22;7175;51.978;5.330;2023-04-09T05:35:42;9.90;99.90
14188;DHT22;7175;51.978;5.330;2023-04-09T05:38:10;9.90;99.90
14188;DHT22;7175;51.978;5.330;2023-04-09T05:40:41;9.90;99.90
14188;DHT22;7175;51.978;5.330;2023-04-09T05:43:13;9.90;99.90
14188;DHT22;7175;51.978;5.330;2023-04-09T05:45:42;9.80;99.90
14188;DHT22;7175;51.978;5.330;2023-04-09T05:48:10;9.80;99.90
14188;DHT22;7175;51.978;5.330;2023-04-09T05:50:39;9.80;99.90
14188;DHT22;7175;51.978;5.330;2023-04-09T05:53:21;9.80;99.90
14188;DHT22;7175;51.978;5.330;2023-04-09T05:55:51;9.80;99.90
14188;DHT22;7175;51.978;5.330;2023-04-09T05:58:19;9.80;99.90
14188;DHT22;7175;51.978;5.330;2023-04-09T06:00:48;9.80;99.90
14188;DHT22;7175;51.978;5.330;2023-04-09T06:03:17;9.80;99.90
14188;DHT22;7175;51.978;5.330;2023-04-09T06:05:46;9.80;99.90
14188;DHT22;7175;51.978;5.330;2023-04-09T06:08:15;9.80;99.90
14188;DHT22;7175;51.978;5.330;2023-04-09T06:10:43;9.70;99.90
14188;DHT22;7175;51.978;5.330;2023-04-09T06:13:13;9.70;99.90
14188;DHT22;7175;51.978;5.330;2023-04-09T06:15:41;9.70;99.90
14188;DHT22;7175;51.978;5.330;2023-04-09T06:18:09;9.70;99.90
14188;DHT22;7175;51.978;5.330;2023-04-09T06:20:38;9.70;99.90
14188;DHT22;7175;51.978;5.330;2023-04-09T06:23:07;9.70;99.90
14188;DHT22;7175;51.978;5.330;2023-04-09T06:25:35;9.70;99.90
14188;DHT22;7175;51.978;5.330;2023-04-09T06:28:04;9.70;99.90
14188;DHT22;7175;51.978;5.330;2023-04-09T06:30:34;9.70;99.90
14188;DHT22;7175;51.978;5.330;2023-04-09T06:33:03;9.70;99.90
14188;DHT22;7175;51.978;5.330;2023-04-09T06:35:31;9.80;99.90
14188;DHT22;7175;51.978;5.330;2023-04-09T06:37:59;9.80;99.90
14188;DHT22;7175;51.978;5.330;2023-04-09T06:40:27;9.80;99.90
14188;DHT22;7175;51.978;5.330;2023-04-09T06:42:56;9.70;99.90
14188;DHT22;7175;51.978;5.330;2023-04-09T06:45:24;9.80;99.90
14188;DHT22;7175;51.978;5.330;2023-04-09T06:47:55;9.90;99.90
14188;DHT22;7175;51.978;5.330;2023-04-09T06:50:23;9.90;99.90
14188;DHT22;7175;51.978;5.330;2023-04-09T06:52:51;9.90;99.90
14188;DHT22;7175;51.978;5.330;2023-04-09T06:55:20;10.00;99.90
14188;DHT22;7175;51.978;5.330;2023-04-09T06:57:49;10.10;99.90
14188;DHT22;7175;51.978;5.330;2023-04-09T07:00:17;10.20;99.90
14188;DHT22;7175;51.978;5.330;2023-04-09T07:02:46;10.40;99.90
14188;DHT22;7175;51.978;5.330;2023-04-09T07:05:17;10.40;99.90
14188;DHT22;7175;51.978;5.330;2023-04-09T07:07:45;10.60;99.90
14188;DHT22;7175;51.978;5.330;2023-04-09T07:10:14;10.70;99.90
14188;DHT22;7175;51.978;5.330;2023-04-09T07:12:48;10.90;99.90
14188;DHT22;7175;51.978;5.330;2023-04-09T07:15:16;10.60;99.90
14188;DHT22;7175;51.978;5.330;2023-04-09T07:17:45;10.70;99.90
14188;DHT22;7175;51.978;5.330;2023-04-09T07:20:13;10.60;99.90
14188;DHT22;7175;51.978;5.330;2023-04-09T07:22:43;10.60;99.90
14188;DHT22;7175;51.978;5.330;2023-04-09T07:25:11;10.60;99.90
14188;DHT22;7175;51.978;5.330;2023-04-09T07:27:40;10.50;99.90
14188;DHT22;7175;51.978;5.330;2023-04-09T07:30:08;10.70;99.90
14188;DHT22;7175;51.978;5.330;2023-04-09T07:32:37;10.50;99.90
14188;DHT22;7175;51.978;5.330;2023-04-09T07:35:07;10.70;99.90
14188;DHT22;7175;51.978;5.330;2023-04-09T07:37:37;10.80;99.90
14188;DHT22;7175;51.978;5.330;2023-04-09T07:40:08;10.70;99.90
14188;DHT22;7175;51.978;5.330;2023-04-09T07:42:37;11.00;99.90
14188;DHT22;7175;51.978;5.330;2023-04-09T07:45:06;10.80;99.90
14188;DHT22;7175;51.978;5.330;2023-04-09T07:47:34;10.90;99.90
14188;DHT22;7175;51.978;5.330;2023-04-09T07:50:03;11.20;99.90
14188;DHT22;7175;51.978;5.330;2023-04-09T07:52:32;11.10;99.90
14188;DHT22;7175;51.978;5.330;2023-04-09T07:55:01;11.10;99.90
14188;DHT22;7175;51.978;5.330;2023-04-09T07:57:31;11.00;99.90
14188;DHT22;7175;51.978;5.330;2023-04-09T08:00:00;11.10;99.90
14188;DHT22;7175;51.978;5.330;2023-04-09T08:02:29;10.90;99.90
14188;DHT22;7175;51.978;5.330;2023-04-09T08:04:58;11.00;99.90
14188;DHT22;7175;51.978;5.330;2023-04-09T08:07:27;11.30;99.90
14188;DHT22;7175;51.978;5.330;2023-04-09T08:09:55;11.40;99.90
14188;DHT22;7175;51.978;5.330;2023-04-09T08:12:24;11.40;99.90
14188;DHT22;7175;51.978;5.330;2023-04-09T08:14:54;11.50;99.90
14188;DHT22;7175;51.978;5.330;2023-04-09T08:17:22;11.40;99.90
14188;DHT22;7175;51.978;5.330;2023-04-09T08:19:51;11.50;99.90
14188;DHT22;7175;51.978;5.330;2023-04-09T08:22:19;11.30;99.90
14188;DHT22;7175;51.978;5.330;2023-04-09T08:24:50;11.60;99.90
14188;DHT22;7175;51.978;5.330;2023-04-09T08:27:20;11.90;99.90
14188;DHT22;7175;51.978;5.330;2023-04-09T08:29:49;12.00;99.90
14188;DHT22;7175;51.978;5.330;2023-04-09T08:32:19;12.00;99.90
14188;DHT22;7175;51.978;5.330;2023-04-09T08:34:48;11.90;99.90
14188;DHT22;7175;51.978;5.330;2023-04-09T08:37:16;11.90;99.90
14188;DHT22;7175;51.978;5.330;2023-04-09T08:39:45;12.20;99.90
14188;DHT22;7175;51.978;5.330;2023-04-09T08:42:15;12.60;99.90
14188;DHT22;7175;51.978;5.330;2023-04-09T08:44:44;12.30;99.90
14188;DHT22;7175;51.978;5.330;2023-04-09T08:47:12;12.30;99.90
14188;DHT22;7175;51.978;5.330;2023-04-09T08:49:42;12.40;99.90
14188;DHT22;7175;51.978;5.330;2023-04-09T08:52:14;12.20;99.90
14188;DHT22;7175;51.978;5.330;2023-04-09T08:54:49;12.00;99.90
14188;DHT22;7175;51.978;5.330;2023-04-09T08:57:18;12.00;99.90
14188;DHT22;7175;51.978;5.330;2023-04-09T08:59:47;12.00;99.90
14188;DHT22;7175;51.978;5.330;2023-04-09T09:02:16;12.00;99.90
14188;DHT22;7175;51.978;5.330;2023-04-09T09:04:47;12.30;99.90
14188;DHT22;7175;51.978;5.330;2023-04-09T09:07:16;12.40;99.90
14188;DHT22;7175;51.978;5.330;2023-04-09T09:09:52;12.20;99.90
14188;DHT22;7175;51.978;5.330;2023-04-09T09:12:36;12.50;99.90
14188;DHT22;7175;51.978;5.330;2023-04-09T09:15:24;12.70;99.90
14188;DHT22;7175;51.978;5.330;2023-04-09T09:17:54;12.90;99.90
14188;DHT22;7175;51.978;5.330;2023-04-09T09:20:25;12.90;99.90
14188;DHT22;7175;51.978;5.330;2023-04-09T09:22:55;12.90;99.90
14188;DHT22;7175;51.978;5.330;2023-04-09T09:25:25;12.50;99.90
14188;DHT22;7175;51.978;5.330;2023-04-09T09:27:54;13.00;99.90
14188;DHT22;7175;51.978;5.330;2023-04-09T09:30:24;13.60;99.90
14188;DHT22;7175;51.978;5.330;2023-04-09T09:32:54;13.30;99.90
14188;DHT22;7175;51.978;5.330;2023-04-09T09:35:27;13.70;99.90
14188;DHT22;7175;51.978;5.330;2023-04-09T09:38:03;13.60;99.90
14188;DHT22;7175;51.978;5.330;2023-04-09T09:40:32;13.60;99.90
14188;DHT22;7175;51.978;5.330;2023-04-09T09:43:04;13.80;99.90
14188;DHT22;7175;51.978;5.330;2023-04-09T09:45:33;14.10;99.90
14188;DHT22;7175;51.978;5.330;2023-04-09T09:48:04;14.20;99.90
14188;DHT22;7175;51.978;5.330;2023-04-09T09:50:35;14.20;99.90
14188;DHT22;7175;51.978;5.330;2023-04-09T09:53:06;14.40;99.90
14188;DHT22;7175;51.978;5.330;2023-04-09T09:55:38;14.10;99.90
14188;DHT22;7175;51.978;5.330;2023-04-09T09:58:11;14.50;99.90
14188;DHT22;7175;51.978;5.330;2023-04-09T10:00:45;14.40;99.90
14188;DHT22;7175;51.978;5.330;2023-04-09T10:03:20;14.30;99.90
14188;DHT22;7175;51.978;5.330;2023-04-09T10:05:52;14.70;99.90
14188;DHT22;7175;51.978;5.330;2023-04-09T10:08:21;14.70;99.90
14188;DHT22;7175;51.978;5.330;2023-04-09T10:10:51;14.20;99.90
14188;DHT22;7175;51.978;5.330;2023-04-09T10:13:25;14.50;99.90
14188;DHT22;7175;51.978;5.330;2023-04-09T10:15:58;14.90;99.90
14188;DHT22;7175;51.978;5.330;2023-04-09T10:18:28;14.70;99.90
14188;DHT22;7175;51.978;5.330;2023-04-09T10:21:04;15.20;99.90
14188;DHT22;7175;51.978;5.330;2023-04-09T10:23:39;15.20;99.90
14188;DHT22;7175;51.978;5.330;2023-04-09T10:26:08;15.00;99.90
14188;DHT22;7175;51.978;5.330;2023-04-09T10:28:37;14.80;99.90
14188;DHT22;7175;51.978;5.330;2023-04-09T10:31:06;14.80;99.90
14188;DHT22;7175;51.978;5.330;2023-04-09T10:33:36;15.20;99.90
14188;DHT22;7175;51.978;5.330;2023-04-09T10:36:09;15.30;99.90
14188;DHT22;7175;51.978;5.330;2023-04-09T10:38:41;14.70;99.90
14188;DHT22;7175;51.978;5.330;2023-04-09T10:41:14;14.80;99.90
14188;DHT22;7175;51.978;5.330;2023-04-09T10:43:46;14.90;99.90
14188;DHT22;7175;51.978;5.330;2023-04-09T10:46:25;15.30;99.90
14188;DHT22;7175;51.978;5.330;2023-04-09T10:49:10;15.00;99.90
14188;DHT22;7175;51.978;5.330;2023-04-09T10:51:47;14.70;99.90
14188;DHT22;7175;51.978;5.330;2023-04-09T10:54:51;14.80;99.90
14188;DHT22;7175;51.978;5.330;2023-04-09T10:57:22;14.60;99.90
14188;DHT22;7175;51.978;5.330;2023-04-09T10:59:53;14.50;99.90
14188;DHT22;7175;51.978;5.330;2023-04-09T11:02:45;14.40;99.90
14188;DHT22;7175;51.978;5.330;2023-04-09T11:05:24;14.50;99.90
14188;DHT22;7175;51.978;5.330;2023-04-09T11:08:00;14.60;99.90
14188;DHT22;7175;51.978;5.330;2023-04-09T11:10:35;14.90;99.90
14188;DHT22;7175;51.978;5.330;2023-04-09T11:13:04;15.80;99.90
14188;DHT22;7175;51.978;5.330;2023-04-09T11:15:34;16.20;99.90
14188;DHT22;7175;51.978;5.330;2023-04-09T11:18:04;16.10;99.90
14188;DHT22;7175;51.978;5.330;2023-04-09T11:20:35;15.60;99.90
14188;DHT22;7175;51.978;5.330;2023-04-09T11:23:06;15.60;99.90
14188;DHT22;7175;51.978;5.330;2023-04-09T11:25:34;15.70;99.90
14188;DHT22;7175;51.978;5.330;2023-04-09T11:28:03;15.80;99.90
14188;DHT22;7175;51.978;5.330;2023-04-09T11:30:32;15.50;99.90
14188;DHT22;7175;51.978;5.330;2023-04-09T11:33:01;15.70;99.90
14188;DHT22;7175;51.978;5.330;2023-04-09T11:35:33;15.50;99.90
14188;DHT22;7175;51.978;5.330;2023-04-09T11:38:06;15.90;99.90
14188;DHT22;7175;51.978;5.330;2023-04-09T11:40:36;15.70;99.90
14188;DHT22;7175;51.978;5.330;2023-04-09T11:43:09;15.80;99.90
14188;DHT22;7175;51.978;5.330;2023-04-09T11:45:37;15.80;99.90
14188;DHT22;7175;51.978;5.330;2023-04-09T11:48:06;15.60;99.90
14188;DHT22;7175;51.978;5.330;2023-04-09T11:50:36;15.80;99.90
14188;DHT22;7175;51.978;5.330;2023-04-09T11:53:16;16.50;99.90
14188;DHT22;7175;51.978;5.330;2023-04-09T11:55:47;17.10;99.90
14188;DHT22;7175;51.978;5.330;2023-04-09T11:58:21;17.20;99.90
14188;DHT22;7175;51.978;5.330;2023-04-09T12:00:52;17.40;99.90
14188;DHT22;7175;51.978;5.330;2023-04-09T12:03:27;17.00;99.90
14188;DHT22;7175;51.978;5.330;2023-04-09T12:06:00;16.90;99.90
14188;DHT22;7175;51.978;5.330;2023-04-09T12:08:33;16.90;99.90
14188;DHT22;7175;51.978;5.330;2023-04-09T12:11:09;16.70;99.90
14188;DHT22;7175;51.978;5.330;2023-04-09T12:13:38;16.50;99.90
14188;DHT22;7175;51.978;5.330;2023-04-09T12:16:10;16.20;99.90
14188;DHT22;7175;51.978;5.330;2023-04-09T12:18:38;16.10;99.90
14188;DHT22;7175;51.978;5.330;2023-04-09T12:21:07;16.80;99.90
14188;DHT22;7175;51.978;5.330;2023-04-09T12:23:38;17.30;99.90
14188;DHT22;7175;51.978;5.330;2023-04-09T12:26:06;17.50;99.90
14188;DHT22;7175;51.978;5.330;2023-04-09T12:28:35;17.90;99.90
14188;DHT22;7175;51.978;5.330;2023-04-09T12:31:04;17.60;99.90
14188;DHT22;7175;51.978;5.330;2023-04-09T12:33:32;17.00;99.90
14188;DHT22;7175;51.978;5.330;2023-04-09T12:36:05;17.00;99.90
14188;DHT22;7175;51.978;5.330;2023-04-09T12:38:34;17.40;99.90
14188;DHT22;7175;51.978;5.330;2023-04-09T12:41:04;17.40;99.90
14188;DHT22;7175;51.978;5.330;2023-04-09T12:43:33;18.10;99.90
14188;DHT22;7175;51.978;5.330;2023-04-09T12:46:02;18.50;99.90
14188;DHT22;7175;51.978;5.330;2023-04-09T12:48:32;18.20;99.90
14188;DHT22;7175;51.978;5.330;2023-04-09T12:51:00;18.20;99.90
14188;DHT22;7175;51.978;5.330;2023-04-09T12:53:29;18.00;99.90
14188;DHT22;7175;51.978;5.330;2023-04-09T12:55:58;18.20;99.90
14188;DHT22;7175;51.978;5.330;2023-04-09T12:58:30;17.80;99.90
14188;DHT22;7175;51.978;5.330;2023-04-09T13:00:59;17.20;99.90
14188;DHT22;7175;51.978;5.330;2023-04-09T13:03:30;17.20;99.90
14188;DHT22;7175;51.978;5.330;2023-04-09T13:05:59;17.80;99.90
14188;DHT22;7175;51.978;5.330;2023-04-09T13:08:28;18.00;99.90
14188;DHT22;7175;51.978;5.330;2023-04-09T13:10:57;18.00;99.70
14188;DHT22;7175;51.978;5.330;2023-04-09T13:13:25;18.20;99.90
14188;DHT22;7175;51.978;5.330;2023-04-09T13:15:56;18.50;99.70
14188;DHT22;7175;51.978;5.330;2023-04-09T13:18:24;18.60;98.90
14188;DHT22;7175;51.978;5.330;2023-04-09T13:20:52;18.90;98.50
14188;DHT22;7175;51.978;5.330;2023-04-09T13:23:21;18.80;96.50
14188;DHT22;7175;51.978;5.330;2023-04-09T13:25:49;18.50;96.00
14188;DHT22;7175;51.978;5.330;2023-04-09T13:28:17;18.50;96.20
14188;DHT22;7175;51.978;5.330;2023-04-09T13:30:47;18.80;96.10
14188;DHT22;7175;51.978;5.330;2023-04-09T13:33:16;18.80;97.30
14188;DHT22;7175;51.978;5.330;2023-04-09T13:35:45;18.90;95.50
14188;DHT22;7175;51.978;5.330;2023-04-09T13:38:13;19.00;95.20
14188;DHT22;7175;51.978;5.330;2023-04-09T13:40:41;18.90;94.50
14188;DHT22;7175;51.978;5.330;2023-04-09T13:43:10;19.10;94.40
14188;DHT22;7175;51.978;5.330;2023-04-09T13:45:38;19.40;94.30
14188;DHT22;7175;51.978;5.330;2023-04-09T13:48:07;19.50;93.00
14188;DHT22;7175;51.978;5.330;2023-04-09T13:50:36;19.20;93.80
14188;DHT22;7175;51.978;5.330;2023-04-09T13:53:05;19.40;94.00
14188;DHT22;7175;51.978;5.330;2023-04-09T13:55:33;18.30;92.40
14188;DHT22;7175;51.978;5.330;2023-04-09T13:58:02;18.20;94.10
14188;DHT22;7175;51.978;5.330;2023-04-09T14:00:30;18.70;94.00
14188;DHT22;7175;51.978;5.330;2023-04-09T14:03:00;18.50;94.20
14188;DHT22;7175;51.978;5.330;2023-04-09T14:05:29;18.20;91.60
14188;DHT22;7175;51.978;5.330;2023-04-09T14:08:00;18.20;92.80
14188;DHT22;7175;51.978;5.330;2023-04-09T14:10:28;18.60;94.60
14188;DHT22;7175;51.978;5.330;2023-04-09T14:12:57;18.80;92.00
14188;DHT22;7175;51.978;5.330;2023-04-09T14:15:26;18.60;92.40
14188;DHT22;7175;51.978;5.330;2023-04-09T14:17:54;18.20;91.90
14188;DHT22;7175;51.978;5.330;2023-04-09T14:20:23;18.30;92.10
14188;DHT22;7175;51.978;5.330;2023-04-09T14:22:51;18.50;92.00
14188;DHT22;7175;51.978;5.330;2023-04-09T14:25:21;18.40;92.80
14188;DHT22;7175;51.978;5.330;2023-04-09T14:27:50;18.40;93.40
14188;DHT22;7175;51.978;5.330;2023-04-09T14:30:18;18.10;93.20
14188;DHT22;7175;51.978;5.330;2023-04-09T14:32:46;17.90;90.90
14188;DHT22;7175;51.978;5.330;2023-04-09T14:35:15;17.80;91.90
14188;DHT22;7175;51.978;5.330;2023-04-09T14:37:43;17.90;91.90
14188;DHT22;7175;51.978;5.330;2023-04-09T14:40:13;17.70;92.70
14188;DHT22;7175;51.978;5.330;2023-04-09T14:42:44;17.30;93.30
14188;DHT22;7175;51.978;5.330;2023-04-09T14:45:13;17.00;93.00
14188;DHT22;7175;51.978;5.330;2023-04-09T14:47:41;17.10;93.40
14188;DHT22;7175;51.978;5.330;2023-04-09T14:50:10;17.20;93.20
14188;DHT22;7175;51.978;5.330;2023-04-09T14:52:39;17.50;92.80
14188;DHT22;7175;51.978;5.330;2023-04-09T14:55:08;17.20;92.80
14188;DHT22;7175;51.978;5.330;2023-04-09T14:57:38;17.20;93.10
14188;DHT22;7175;51.978;5.330;2023-04-09T15:00:10;17.10;93.30
14188;DHT22;7175;51.978;5.330;2023-04-09T15:02:39;16.90;95.70
14188;DHT22;7175;51.978;5.330;2023-04-09T15:05:09;16.80;94.10
14188;DHT22;7175;51.978;5.330;2023-04-09T15:07:38;16.70;94.70
14188;DHT22;7175;51.978;5.330;2023-04-09T15:10:07;16.70;94.60
14188;DHT22;7175;51.978;5.330;2023-04-09T15:12:36;16.70;95.10
14188;DHT22;7175;51.978;5.330;2023-04-09T15:15:05;16.50;95.70
14188;DHT22;7175;51.978;5.330;2023-04-09T15:17:35;16.60;97.00
14188;DHT22;7175;51.978;5.330;2023-04-09T15:20:05;16.70;96.20
14188;DHT22;7175;51.978;5.330;2023-04-09T15:22:33;16.30;95.40
14188;DHT22;7175;51.978;5.330;2023-04-09T15:25:02;16.20;95.40
14188;DHT22;7175;51.978;5.330;2023-04-09T15:27:31;16.20;95.10
14188;DHT22;7175;51.978;5.330;2023-04-09T15:29:59;16.10;95.60
14188;DHT22;7175;51.978;5.330;2023-04-09T15:32:28;16.10;96.10
14188;DHT22;7175;51.978;5.330;2023-04-09T15:34:58;16.20;95.50
14188;DHT22;7175;51.978;5.330;2023-04-09T15:37:27;15.90;96.40
14188;DHT22;7175;51.978;5.330;2023-04-09T15:39:55;16.00;96.10
14188;DHT22;7175;51.978;5.330;2023-04-09T15:42:24;15.80;95.80
14188;DHT22;7175;51.978;5.330;2023-04-09T15:44:53;15.80;96.20
14188;DHT22;7175;51.978;5.330;2023-04-09T15:47:21;15.60;96.50
14188;DHT22;7175;51.978;5.330;2023-04-09T15:49:50;15.50;96.80
14188;DHT22;7175;51.978;5.330;2023-04-09T15:52:20;15.80;98.40
14188;DHT22;7175;51.978;5.330;2023-04-09T15:54:48;15.70;99.20
14188;DHT22;7175;51.978;5.330;2023-04-09T15:57:17;15.80;97.60
14188;DHT22;7175;51.978;5.330;2023-04-09T15:59:47;15.70;99.50
14188;DHT22;7175;51.978;5.330;2023-04-09T16:02:15;15.70;98.50
14188;DHT22;7175;51.978;5.330;2023-04-09T16:04:43;15.80;98.80
14188;DHT22;7175;51.978;5.330;2023-04-09T16:07:13;15.70;99.40